Time;durP1;ratioP1;P1;durP2;ratioP2;P2;SDS_P1;SDS_P2;PMS_P1;PMS_P2;Temp;Humidity;BMP_temperature;BMP_pressure;BME280_temperature;BME280_humidity;BME280_pressure;Samples;Min_cycle;Max_cycle;Signal;HPM_P1;HPM_P2
2021/06/26 00:00:06;;;;;;;10.07;8.17;;;;;;;15.23;88.04;101922.41;680243;29;857;-69
2021/06/26 00:00:27;;;;;;;11.27;8.73;;;;;;;15.18;88.28;101923.50;680194;29;959;-68
2021/06/26 00:00:50;;;;;;;11.60;8.90;;;;;;;15.17;88.02;101923.53;680171;29;948;-68
2021/06/26 00:01:11;;;;;;;11.40;8.93;;;;;;;15.16;88.33;101932.44;680206;29;884;-68
2021/06/26 00:01:32;;;;;;;11.25;9.25;;;;;;;15.14;88.23;101923.66;680128;29;893;-69
2021/06/26 00:01:52;;;;;;;11.00;9.32;;;;;;;15.12;88.46;101930.84;680245;29;979;-69
2021/06/26 00:02:12;;;;;;;12.60;9.57;;;;;;;15.14;88.38;101923.66;680104;29;608;-68
2021/06/26 00:02:33;;;;;;;11.70;9.20;;;;;;;15.15;88.32;101928.94;680236;29;865;-68
2021/06/26 00:02:53;;;;;;;11.32;9.07;;;;;;;15.17;88.10;101929.75;679703;29;1040;-69
2021/06/26 00:03:13;;;;;;;10.23;8.87;;;;;;;15.17;88.00;101927.09;680162;29;952;-69
2021/06/26 00:03:33;;;;;;;11.07;8.80;;;;;;;15.16;87.99;101928.00;680188;29;936;-69
2021/06/26 00:03:54;;;;;;;11.02;8.90;;;;;;;15.15;88.27;101926.28;680145;29;849;-68
2021/06/26 00:04:14;;;;;;;11.57;9.17;;;;;;;15.14;88.27;101928.97;680109;29;984;-69
2021/06/26 00:04:35;;;;;;;13.57;9.43;;;;;;;15.14;88.12;101929.88;680261;29;917;-68
2021/06/26 00:04:55;;;;;;;12.55;9.25;;;;;;;15.19;88.19;101932.31;680081;29;938;-68
2021/06/26 00:05:15;;;;;;;11.20;8.60;;;;;;;15.13;88.13;101927.25;680240;29;973;-68
2021/06/26 00:05:35;;;;;;;12.00;9.65;;;;;;;15.09;88.42;101931.84;680183;29;1272;-68
2021/06/26 00:05:57;;;;;;;12.53;9.87;;;;;;;15.07;88.44;101933.72;680036;29;948;-69
2021/06/26 00:06:17;;;;;;;11.77;9.85;;;;;;;15.08;88.60;101932.78;680187;29;953;-69
2021/06/26 00:06:38;;;;;;;11.73;10.07;;;;;;;15.08;88.20;101923.97;680071;29;983;-68
2021/06/26 00:06:58;;;;;;;13.60;9.90;;;;;;;15.06;88.60;101925.81;680171;29;889;-68
2021/06/26 00:07:19;;;;;;;12.05;9.90;;;;;;;15.02;88.46;101930.38;680217;29;841;-69
2021/06/26 00:07:40;;;;;;;12.70;10.35;;;;;;;15.04;88.76;101933.84;680131;29;923;-69
2021/06/26 00:08:00;;;;;;;12.03;10.53;;;;;;;15.08;88.59;101932.78;680125;29;914;-69
2021/06/26 00:08:23;;;;;;;12.80;10.63;;;;;;;15.08;88.53;101935.44;680272;29;864;-68
2021/06/26 00:08:43;;;;;;;12.13;9.98;;;;;;;15.03;88.74;101926.78;680107;29;867;-68
2021/06/26 00:09:04;;;;;;;12.67;10.23;;;;;;;15.07;88.62;101928.41;680220;29;951;-68
2021/06/26 00:09:24;;;;;;;11.73;9.70;;;;;;;15.09;88.25;101934.50;680138;29;969;-68
2021/06/26 00:09:44;;;;;;;11.83;10.00;;;;;;;15.12;88.67;101929.06;680164;29;822;-69
2021/06/26 00:10:07;;;;;;;12.40;10.25;;;;;;;15.14;88.33;101924.56;680221;29;863;-68
2021/06/26 00:10:27;;;;;;;12.82;10.10;;;;;;;15.14;88.35;101932.53;680127;29;929;-68
2021/06/26 00:10:48;;;;;;;12.90;10.20;;;;;;;15.12;88.25;101926.41;680214;29;949;-68
2021/06/26 00:11:09;;;;;;;13.48;10.02;;;;;;;15.11;88.31;101930.00;680213;29;817;-68
2021/06/26 00:11:29;;;;;;;13.00;10.23;;;;;;;15.12;88.47;101931.72;680154;29;797;-69
2021/06/26 00:11:49;;;;;;;13.10;10.13;;;;;;;15.13;88.32;101927.25;680144;29;916;-68
2021/06/26 00:12:10;;;;;;;13.43;10.57;;;;;;;15.13;88.18;101928.13;680212;29;991;-68
2021/06/26 00:12:30;;;;;;;12.90;10.37;;;;;;;15.12;87.96;101930.84;680141;29;928;-69
2021/06/26 00:12:50;;;;;;;12.13;10.27;;;;;;;15.11;88.26;101924.69;679772;29;984;-68
2021/06/26 00:13:11;;;;;;;11.98;10.25;;;;;;;15.11;88.37;101937.97;680152;29;999;-68
2021/06/26 00:13:32;;;;;;;12.43;10.40;;;;;;;15.10;88.39;101927.41;680216;29;809;-69
2021/06/26 00:13:52;;;;;;;12.50;10.30;;;;;;;15.12;88.53;101931.72;680154;29;841;-68
2021/06/26 00:14:12;;;;;;;12.63;10.02;;;;;;;15.15;88.52;101931.59;680181;29;868;-68
2021/06/26 00:14:33;;;;;;;12.07;10.20;;;;;;;15.18;88.36;101925.28;680271;29;823;-68
2021/06/26 00:14:53;;;;;;;12.63;10.03;;;;;;;15.19;88.35;101921.69;680108;29;1004;-69
2021/06/26 00:15:14;;;;;;;12.63;9.93;;;;;;;15.17;88.06;101932.41;680128;29;1001;-68
2021/06/26 00:15:34;;;;;;;12.13;10.00;;;;;;;15.12;88.06;101926.41;680140;29;1249;-68
2021/06/26 00:15:55;;;;;;;12.43;10.00;;;;;;;15.14;87.89;101929.88;679988;29;1958;-69
2021/06/26 00:16:15;;;;;;;11.70;10.30;;;;;;;15.17;88.20;101927.09;680273;29;893;-68
2021/06/26 00:16:35;;;;;;;11.82;10.07;;;;;;;15.17;88.39;101924.44;680203;29;989;-69
2021/06/26 00:16:56;;;;;;;12.23;10.10;;;;;;;15.16;88.04;101925.34;680116;29;909;-68
2021/06/26 00:17:16;;;;;;;11.93;10.18;;;;;;;15.16;87.83;101933.31;680131;29;1055;-68
2021/06/26 00:17:37;;;;;;;12.30;10.40;;;;;;;15.15;88.34;101930.72;680252;29;831;-68
2021/06/26 00:17:57;;;;;;;12.35;10.32;;;;;;;15.13;88.02;101928.13;680047;29;793;-69
2021/06/26 00:18:17;;;;;;;12.60;10.30;;;;;;;15.13;88.20;101922.81;679865;29;952;-69
2021/06/26 00:18:37;;;;;;;12.57;10.23;;;;;;;15.15;88.13;101928.06;679900;29;847;-69
2021/06/26 00:18:58;;;;;;;12.23;10.23;;;;;;;15.14;88.19;101934.28;680104;29;909;-68
2021/06/26 00:19:18;;;;;;;12.07;10.07;;;;;;;15.11;88.03;101924.69;680179;29;984;-68
2021/06/26 00:19:38;;;;;;;12.55;10.30;;;;;;;15.11;88.23;101923.84;680118;29;955;-68
2021/06/26 00:19:59;;;;;;;12.73;10.57;;;;;;;15.10;88.39;101922.94;680203;29;999;-69
2021/06/26 00:20:19;;;;;;;12.97;10.40;;;;;;;15.12;88.36;101926.41;680236;29;864;-69
2021/06/26 00:20:40;;;;;;;12.23;10.17;;;;;;;15.11;88.39;101923.84;680186;29;920;-69
2021/06/26 00:21:00;;;;;;;12.83;10.83;;;;;;;15.10;88.34;101930.91;680201;29;1003;-69
2021/06/26 00:21:20;;;;;;;13.50;10.70;;;;;;;15.12;88.25;101926.41;680306;29;825;-69
2021/06/26 00:21:40;;;;;;;13.73;10.60;;;;;;;15.10;88.47;101928.25;679998;29;1019;-69
2021/06/26 00:22:01;;;;;;;12.93;10.67;;;;;;;15.10;88.30;101928.25;680201;29;849;-69
2021/06/26 00:22:21;;;;;;;12.48;10.27;;;;;;;15.11;88.41;101927.34;680256;29;809;-69
2021/06/26 00:22:42;;;;;;;12.50;10.47;;;;;;;15.14;88.57;101924.56;679931;29;864;-69
2021/06/26 00:23:03;;;;;;;12.90;10.23;;;;;;;15.14;88.45;101923.66;679982;29;1019;-69
2021/06/26 00:23:23;;;;;;;13.35;10.65;;;;;;;15.11;88.22;101922.03;680181;29;1004;-69
2021/06/26 00:23:44;;;;;;;13.40;10.80;;;;;;;15.08;88.49;101923.97;680117;29;842;-69
2021/06/26 00:24:05;;;;;;;12.65;10.68;;;;;;;15.10;88.49;101922.94;680214;29;1007;-69
2021/06/26 00:24:25;;;;;;;13.95;10.70;;;;;;;15.14;88.24;101929.88;680196;29;801;-69
2021/06/26 00:24:45;;;;;;;13.70;10.93;;;;;;;15.14;88.12;101921.00;680261;29;1032;-70
2021/06/26 00:25:06;;;;;;;14.30;10.90;;;;;;;15.10;88.10;101919.44;680191;29;1031;-71
2021/06/26 00:25:26;;;;;;;13.43;10.60;;;;;;;15.06;88.25;101921.34;680054;29;843;-70
2021/06/26 00:25:47;;;;;;;13.80;11.03;;;;;;;15.02;88.41;101926.88;680029;29;1320;-69
2021/06/26 00:26:08;;;;;;;13.43;11.15;;;;;;;15.05;88.61;101924.94;680180;29;1040;-69
2021/06/26 00:26:28;;;;;;;13.20;10.98;;;;;;;15.09;88.31;101923.88;680197;29;911;-70
2021/06/26 00:26:50;;;;;;;12.73;10.73;;;;;;;15.10;88.71;101922.09;680274;29;936;-69
2021/06/26 00:27:10;;;;;;;12.27;10.32;;;;;;;15.07;88.53;101916.91;680115;29;988;-69
2021/06/26 00:27:31;;;;;;;13.33;11.03;;;;;;;15.09;88.54;101926.53;680318;29;805;-69
2021/06/26 00:27:53;;;;;;;13.70;11.02;;;;;;;15.10;88.54;101925.59;680037;29;952;-68
2021/06/26 00:28:13;;;;;;;12.63;10.85;;;;;;;15.12;88.40;101926.41;680074;29;1006;-69
2021/06/26 00:28:33;;;;;;;13.57;10.60;;;;;;;15.12;88.17;101926.41;680138;29;968;-69
2021/06/26 00:28:55;;;;;;;13.50;10.68;;;;;;;15.10;88.64;101922.94;680198;29;806;-69
2021/06/26 00:29:15;;;;;;;13.45;10.40;;;;;;;15.12;88.37;101926.41;680199;29;824;-69
2021/06/26 00:29:35;;;;;;;12.90;10.20;;;;;;;15.12;88.51;101930.84;680199;29;932;-70
2021/06/26 00:29:55;;;;;;;13.00;10.47;;;;;;;15.09;88.48;101925.69;680001;29;877;-69
2021/06/26 00:30:17;;;;;;;12.80;10.73;;;;;;;15.09;88.65;101921.22;680236;29;872;-70
2021/06/26 00:30:37;;;;;;;12.77;10.50;;;;;;;15.13;88.29;101929.91;680197;29;820;-70
2021/06/26 00:30:57;;;;;;;12.33;10.20;;;;;;;15.14;88.46;101929.88;680138;29;951;-69
2021/06/26 00:31:19;;;;;;;12.90;10.50;;;;;;;15.14;88.25;101924.56;680252;29;829;-69
2021/06/26 00:31:39;;;;;;;13.07;10.60;;;;;;;15.15;88.21;101920.97;680467;29;908;-70
2021/06/26 00:31:59;;;;;;;12.50;10.93;;;;;;;15.14;88.54;101924.56;680156;29;920;-70
2021/06/26 00:32:20;;;;;;;12.35;10.68;;;;;;;15.15;88.44;101920.09;680397;29;896;-69
2021/06/26 00:32:42;;;;;;;12.67;10.70;;;;;;;15.17;88.05;101924.44;680201;29;801;-69
2021/06/26 00:33:02;;;;;;;13.77;11.13;;;;;;;15.16;88.15;101922.69;680147;29;923;-69
2021/06/26 00:33:23;;;;;;;13.73;11.00;;;;;;;15.11;88.24;101919.38;680274;29;1018;-69
2021/06/26 00:33:43;;;;;;;14.10;11.00;;;;;;;15.14;88.13;101926.31;680196;29;845;-70
2021/06/26 00:34:03;;;;;;;14.10;10.93;;;;;;;15.12;88.42;101918.44;680325;29;873;-69
2021/06/26 00:34:23;;;;;;;13.57;10.87;;;;;;;15.08;88.38;101924.81;680344;29;884;-70
2021/06/26 00:34:44;;;;;;;13.50;11.30;;;;;;;15.10;88.32;101916.78;680237;29;825;-70
2021/06/26 00:35:04;;;;;;;13.20;11.13;;;;;;;15.13;88.29;101922.81;680373;29;1012;-70
2021/06/26 00:35:25;;;;;;;13.85;11.10;;;;;;;15.13;88.38;101924.59;680056;29;1037;-70
2021/06/26 00:35:45;;;;;;;14.93;11.50;;;;;;;15.13;88.20;101920.16;680222;29;1386;-70
2021/06/26 00:36:06;;;;;;;13.93;11.27;;;;;;;15.09;88.54;101926.53;680122;29;1968;-69
2021/06/26 00:36:26;;;;;;;13.97;11.20;;;;;;;15.07;88.50;101917.78;680150;29;1138;-70
2021/06/26 00:36:46;;;;;;;13.77;11.20;;;;;;;15.09;88.20;101920.38;680187;29;980;-71
2021/06/26 00:37:06;;;;;;;14.93;11.10;;;;;;;15.08;88.13;101922.16;680285;29;1028;-69
2021/06/26 00:37:27;;;;;;;14.33;11.40;;;;;;;15.09;88.41;101918.56;680168;29;869;-70
2021/06/26 00:37:47;;;;;;;13.27;11.23;;;;;;;15.07;88.21;101917.78;680268;29;921;-69
2021/06/26 00:38:08;;;;;;;14.27;11.83;;;;;;;15.07;88.36;101916.91;680125;29;837;-69
2021/06/26 00:38:28;;;;;;;14.70;11.90;;;;;;;15.07;88.52;101916.91;680045;29;968;-69
2021/06/26 00:38:48;;;;;;;14.10;11.57;;;;;;;15.08;88.21;101919.50;680260;29;960;-69
2021/06/26 00:39:09;;;;;;;14.10;11.23;;;;;;;15.10;88.16;101922.09;680173;29;983;-70
2021/06/26 00:39:29;;;;;;;13.65;10.77;;;;;;;15.08;88.34;101921.31;680221;29;888;-70
2021/06/26 00:39:49;;;;;;;13.27;11.13;;;;;;;15.09;88.34;101915.91;680251;29;996;-70
2021/06/26 00:40:11;;;;;;;13.77;11.40;;;;;;;15.04;88.23;101917.91;679987;29;1063;-69
2021/06/26 00:40:31;;;;;;;14.63;11.80;;;;;;;15.06;88.48;101924.00;680160;29;940;-70
2021/06/26 00:40:51;;;;;;;15.50;12.03;;;;;;;15.07;88.22;101917.78;680182;29;908;-69
2021/06/26 00:41:12;;;;;;;14.15;11.32;;;;;;;15.04;88.64;101917.91;680049;29;972;-69
2021/06/26 00:41:32;;;;;;;14.40;11.50;;;;;;;15.06;88.46;101918.69;680211;29;810;-69
2021/06/26 00:41:53;;;;;;;14.83;11.60;;;;;;;15.05;88.53;101916.97;679987;29;968;-69
2021/06/26 00:42:13;;;;;;;15.07;12.00;;;;;;;15.07;88.34;101911.59;680074;29;843;-71
2021/06/26 00:42:35;;;;;;;13.90;11.68;;;;;;;15.05;88.32;101924.09;680198;29;813;-69
2021/06/26 00:42:55;;;;;;;14.90;11.75;;;;;;;15.05;88.59;101918.78;679664;29;853;-69
2021/06/26 00:43:17;;;;;;;14.60;11.70;;;;;;;15.02;88.39;101919.78;680085;29;877;-70
2021/06/26 00:43:38;;;;;;;14.45;11.70;;;;;;;15.00;88.44;101918.97;680272;29;932;-70
2021/06/26 00:43:58;;;;;;;14.77;11.52;;;;;;;15.03;88.56;101918.84;680089;29;868;-69
2021/06/26 00:44:18;;;;;;;14.37;11.67;;;;;;;15.02;88.54;101919.78;680049;29;1082;-69
2021/06/26 00:44:39;;;;;;;14.43;12.17;;;;;;;15.00;88.93;101918.09;680078;29;1035;-71
2021/06/26 00:44:59;;;;;;;16.05;12.48;;;;;;;14.99;88.83;101917.25;680184;29;797;-69
2021/06/26 00:45:20;;;;;;;16.90;12.50;;;;;;;14.97;88.85;101916.47;680048;29;1031;-70
2021/06/26 00:45:40;;;;;;;16.15;12.63;;;;;;;14.99;88.62;101919.91;679997;29;1329;-69
2021/06/26 00:46:01;;;;;;;16.03;12.63;;;;;;;14.98;88.85;101918.19;680103;29;930;-70
2021/06/26 00:46:21;;;;;;;14.95;12.02;;;;;;;14.99;88.69;101919.91;680181;29;983;-70
2021/06/26 00:46:41;;;;;;;14.33;11.50;;;;;;;14.97;88.81;101921.78;679987;29;971;-70
2021/06/26 00:47:05;;;;;;;14.20;11.60;;;;;;;14.99;88.87;101914.59;680088;29;964;-69
2021/06/26 00:47:26;;;;;;;14.73;11.77;;;;;;;14.98;88.85;101920.84;680081;29;936;-69
2021/06/26 00:47:47;;;;;;;14.57;12.05;;;;;;;14.96;88.88;101917.38;680065;29;1083;-70
2021/06/26 00:48:07;;;;;;;14.70;12.25;;;;;;;14.99;88.69;101919.03;680082;29;873;-69
2021/06/26 00:48:27;;;;;;;13.80;11.73;;;;;;;15.02;88.79;101918.91;680051;29;858;-70
2021/06/26 00:48:48;;;;;;;14.80;12.07;;;;;;;15.04;88.60;101914.41;680077;29;1015;-69
2021/06/26 00:49:08;;;;;;;15.30;12.53;;;;;;;15.03;88.53;101920.63;680159;29;794;-69
2021/06/26 00:49:28;;;;;;;15.27;12.25;;;;;;;15.02;88.77;101914.47;680120;29;813;-70
2021/06/26 00:49:49;;;;;;;15.00;12.07;;;;;;;15.02;88.46;101917.13;680095;29;923;-70
2021/06/26 00:50:14;;;;;;;15.40;11.97;;;;;;;14.99;88.83;101909.28;680062;29;969;-69
2021/06/26 00:50:34;;;;;;;15.65;12.57;;;;;;;14.97;88.57;101919.13;680074;29;814;-68
2021/06/26 00:50:55;;;;;;;16.42;12.32;;;;;;;14.94;88.79;101919.25;680105;29;912;-69
2021/06/26 00:51:15;;;;;;;15.07;12.10;;;;;;;14.90;88.93;101925.59;680083;29;968;-69
2021/06/26 00:51:35;;;;;;;15.27;12.07;;;;;;;14.90;88.94;101925.59;680234;29;876;-70
2021/06/26 00:51:56;;;;;;;15.33;12.40;;;;;;;14.90;88.79;101920.28;680087;29;1022;-70
2021/06/26 00:52:16;;;;;;;15.38;12.35;;;;;;;14.93;88.84;101920.16;680026;29;885;-70
2021/06/26 00:52:36;;;;;;;15.50;11.80;;;;;;;14.96;89.08;101917.38;680216;29;790;-70
2021/06/26 00:52:57;;;;;;;14.47;11.30;;;;;;;14.99;89.00;101919.91;679595;29;840;-70
2021/06/26 00:53:18;;;;;;;15.75;12.30;;;;;;;14.95;88.94;101918.31;680195;29;892;-69
2021/06/26 00:53:38;;;;;;;15.68;12.27;;;;;;;14.93;88.61;101923.69;680183;29;849;-69
2021/06/26 00:53:58;;;;;;;15.03;12.33;;;;;;;14.95;88.98;101923.63;680009;29;813;-69
2021/06/26 00:54:19;;;;;;;15.13;12.60;;;;;;;14.91;88.78;101927.34;680183;29;895;-70
2021/06/26 00:54:39;;;;;;;15.90;12.77;;;;;;;14.85;88.85;101931.09;680215;29;829;-69
2021/06/26 00:55:00;;;;;;;16.05;12.57;;;;;;;14.86;89.01;101929.31;679977;29;959;-70
2021/06/26 00:55:20;;;;;;;16.50;13.00;;;;;;;14.83;88.95;101924.13;680116;29;845;-69
2021/06/26 00:55:51;;;;;;;16.80;12.85;;;;;;;14.86;89.00;101924.00;679976;29;1329;-68
2021/06/26 00:56:13;;;;;;;16.55;12.70;;;;;;;14.82;89.13;101925.06;679960;29;1968;-69
2021/06/26 00:56:34;;;;;;;15.85;12.75;;;;;;;14.84;89.37;101925.88;680194;29;829;-69
2021/06/26 00:56:55;;;;;;;16.13;13.10;;;;;;;14.85;89.03;101927.59;679976;29;992;-69
2021/06/26 00:57:16;;;;;;;15.80;12.80;;;;;;;14.87;89.14;101925.75;680068;29;1004;-69
2021/06/26 00:57:36;;;;;;;16.83;12.73;;;;;;;14.85;88.93;101925.78;680074;29;925;-69
2021/06/26 00:57:58;;;;;;;17.30;13.07;;;;;;;14.86;89.10;101930.16;680320;29;814;-69
2021/06/26 00:58:23;;;;;;;15.07;12.45;;;;;;;14.86;89.22;101929.31;680276;29;845;-69
2021/06/26 00:58:44;;;;;;;15.23;12.60;;;;;;;14.86;89.32;101926.66;680215;29;851;-69
2021/06/26 00:59:04;;;;;;;16.30;12.73;;;;;;;14.89;88.87;101923.88;680153;29;857;-69
2021/06/26 00:59:24;;;;;;;15.40;12.43;;;;;;;14.89;89.12;101924.72;680180;29;809;-69
2021/06/26 00:59:47;;;;;;;15.53;12.53;;;;;;;14.90;89.05;101922.94;680268;29;888;-69
2021/06/26 01:00:08;;;;;;;15.73;12.25;;;;;;;14.90;89.09;101925.59;680174;29;1044;-69
2021/06/26 01:00:30;;;;;;;15.88;12.55;;;;;;;14.88;88.91;101924.81;680065;29;972;-70
2021/06/26 01:00:51;;;;;;;15.20;12.20;;;;;;;14.88;88.88;101923.00;680208;29;901;-69
2021/06/26 01:01:12;;;;;;;15.15;12.50;;;;;;;14.89;88.82;101927.38;680152;29;940;-69
2021/06/26 01:01:32;;;;;;;15.52;12.75;;;;;;;14.91;89.16;101922.03;680279;29;746;-69
2021/06/26 01:01:53;;;;;;;15.47;12.60;;;;;;;14.93;88.85;101920.16;680189;29;965;-69
2021/06/26 01:02:13;;;;;;;15.33;12.90;;;;;;;14.89;89.12;101916.78;680109;29;845;-69
2021/06/26 01:02:34;;;;;;;16.35;12.70;;;;;;;14.86;89.20;101924.84;680194;29;857;-69
2021/06/26 01:02:54;;;;;;;16.57;12.83;;;;;;;14.87;88.94;101920.44;679440;29;1265;-69
2021/06/26 01:03:15;;;;;;;16.42;13.38;;;;;;;14.83;88.84;101925.03;679773;29;911;-69
2021/06/26 01:03:35;;;;;;;15.60;12.87;;;;;;;14.84;88.88;101929.38;679945;29;1015;-69
2021/06/26 01:03:55;;;;;;;15.77;12.65;;;;;;;14.86;89.09;101921.34;679939;29;1011;-68
2021/06/26 01:04:16;;;;;;;15.13;12.47;;;;;;;14.87;88.97;101925.75;679857;29;972;-69
2021/06/26 01:04:36;;;;;;;16.33;12.85;;;;;;;14.83;89.07;101919.72;679956;29;840;-71
2021/06/26 01:04:57;;;;;;;17.30;13.17;;;;;;;14.83;88.96;101925.03;680081;29;858;-70
2021/06/26 01:05:17;;;;;;;17.23;13.23;;;;;;;14.81;89.26;101926.00;680066;29;1011;-70
2021/06/26 01:05:38;;;;;;;16.33;13.30;;;;;;;14.79;89.22;101925.19;680034;29;1352;-71
2021/06/26 01:05:58;;;;;;;16.30;13.27;;;;;;;14.78;89.31;101920.81;680067;29;994;-69
2021/06/26 01:06:18;;;;;;;15.63;12.60;;;;;;;14.80;89.23;101924.28;680130;29;821;-70
2021/06/26 01:06:39;;;;;;;16.27;13.10;;;;;;;14.82;89.14;101928.56;680177;29;969;-71
2021/06/26 01:06:59;;;;;;;16.15;13.52;;;;;;;14.82;89.03;101925.91;680111;29;908;-70
2021/06/26 01:07:19;;;;;;;16.63;13.33;;;;;;;14.86;89.29;101921.34;679969;29;884;-69
2021/06/26 01:07:40;;;;;;;16.50;12.70;;;;;;;14.87;88.89;101929.25;680111;29;884;-70
2021/06/26 01:08:00;;;;;;;15.83;12.27;;;;;;;14.87;89.08;101920.44;680079;29;881;-70
2021/06/26 01:08:23;;;;;;;16.27;12.68;;;;;;;14.83;89.00;101926.78;680105;29;900;-69
2021/06/26 01:08:43;;;;;;;16.00;12.98;;;;;;;14.80;89.29;101929.59;680074;29;865;-69
2021/06/26 01:09:03;;;;;;;16.67;13.13;;;;;;;14.79;88.99;101927.84;680236;29;853;-70
2021/06/26 01:09:25;;;;;;;16.63;12.88;;;;;;;14.80;89.20;101924.28;680125;29;875;-68
2021/06/26 01:09:45;;;;;;;17.17;13.30;;;;;;;14.84;89.16;101931.19;680099;29;995;-69
2021/06/26 01:10:06;;;;;;;16.67;12.87;;;;;;;14.85;89.00;101922.28;680100;29;940;-70
2021/06/26 01:10:28;;;;;;;16.52;12.75;;;;;;;14.87;89.05;101925.75;680162;29;984;-69
2021/06/26 01:10:48;;;;;;;17.42;13.10;;;;;;;14.86;89.15;101919.56;679816;29;983;-70
2021/06/26 01:11:08;;;;;;;16.77;12.83;;;;;;;14.85;89.18;101925.78;680053;29;834;-70
2021/06/26 01:11:29;;;;;;;16.75;13.05;;;;;;;14.84;88.79;101932.03;679824;29;1141;-69
2021/06/26 01:11:49;;;;;;;16.42;13.30;;;;;;;14.87;89.17;101925.75;680067;29;840;-69
2021/06/26 01:12:10;;;;;;;15.77;13.17;;;;;;;14.89;89.01;101924.72;679901;29;865;-70
2021/06/26 01:12:30;;;;;;;16.07;12.90;;;;;;;14.90;89.13;101925.59;679878;29;1059;-69
2021/06/26 01:12:50;;;;;;;15.93;12.57;;;;;;;14.91;88.91;101927.34;679721;29;864;-70
2021/06/26 01:13:11;;;;;;;16.17;12.93;;;;;;;14.91;88.81;101932.66;680186;29;896;-69
2021/06/26 01:13:32;;;;;;;16.13;12.90;;;;;;;14.92;88.75;101929.91;679982;29;965;-69
2021/06/26 01:13:52;;;;;;;15.93;12.50;;;;;;;14.91;88.66;101919.38;680241;29;872;-69
2021/06/26 01:14:12;;;;;;;17.03;13.03;;;;;;;14.88;88.83;101923.00;679989;29;1118;-70
2021/06/26 01:14:33;;;;;;;18.00;13.07;;;;;;;14.90;88.91;101925.59;680210;29;897;-70
2021/06/26 01:14:53;;;;;;;15.98;13.15;;;;;;;14.89;89.02;101923.88;680181;29;897;-70
2021/06/26 01:15:15;;;;;;;17.10;12.90;;;;;;;14.88;88.79;101922.16;680037;29;861;-69
2021/06/26 01:15:36;;;;;;;16.50;13.02;;;;;;;14.88;88.99;101927.47;680059;29;1321;-70
2021/06/26 01:15:56;;;;;;;15.68;12.88;;;;;;;14.90;88.70;101925.59;680057;29;2006;-69
2021/06/26 01:16:17;;;;;;;15.77;13.10;;;;;;;14.88;88.93;101925.66;679997;29;1035;-68
2021/06/26 01:16:37;;;;;;;16.90;13.40;;;;;;;14.88;88.65;101928.31;680135;29;1051;-70
2021/06/26 01:17:06;;;;;;;16.57;13.27;;;;;;;14.85;88.95;101931.09;680025;29;1008;-70
2021/06/26 01:17:26;;;;;;;16.98;13.18;;;;;;;14.83;88.85;101926.78;680130;29;892;-70
2021/06/26 01:17:47;;;;;;;17.83;13.70;;;;;;;14.86;88.76;101929.31;680064;29;853;-69
2021/06/26 01:18:07;;;;;;;17.47;13.70;;;;;;;14.87;88.88;101928.41;680063;29;896;-69
2021/06/26 01:18:28;;;;;;;17.00;13.30;;;;;;;14.88;88.97;101927.47;680061;29;923;-69
2021/06/26 01:18:48;;;;;;;17.97;13.40;;;;;;;14.86;88.85;101924.00;680025;29;1015;-69
2021/06/26 01:19:10;;;;;;;17.27;13.20;;;;;;;14.86;89.09;101926.66;677285;29;991;-68
2021/06/26 01:19:30;;;;;;;16.02;12.73;;;;;;;14.87;88.93;101931.06;677330;29;920;-70
2021/06/26 01:19:51;;;;;;;17.23;13.37;;;;;;;14.84;89.03;101931.19;677186;29;861;-69
2021/06/26 01:20:13;;;;;;;18.67;13.52;;;;;;;14.82;89.11;101927.72;677347;29;908;-70
2021/06/26 01:20:33;;;;;;;17.98;13.88;;;;;;;14.84;89.06;101928.53;677243;29;845;-69
2021/06/26 01:20:53;;;;;;;16.07;12.90;;;;;;;14.87;88.97;101925.75;677830;29;1095;-69
2021/06/26 01:21:13;;;;;;;15.47;13.07;;;;;;;14.88;88.80;101927.47;680039;29;1171;-70
2021/06/26 01:21:35;;;;;;;16.55;13.55;;;;;;;14.86;88.77;101934.63;680036;29;814;-69
2021/06/26 01:21:58;;;;;;;16.52;13.35;;;;;;;14.87;88.87;101925.75;680074;29;924;-69
2021/06/26 01:22:23;;;;;;;17.67;13.43;;;;;;;14.88;88.85;101928.31;677274;29;850;-69
2021/06/26 01:22:45;;;;;;;16.05;13.10;;;;;;;14.87;88.78;101931.91;676924;29;916;-69
2021/06/26 01:23:06;;;;;;;16.98;13.18;;;;;;;14.85;89.06;101930.25;677350;29;853;-69
2021/06/26 01:23:26;;;;;;;16.77;13.50;;;;;;;14.85;89.05;101927.59;677243;29;889;-69
2021/06/26 01:23:50;;;;;;;16.38;13.30;;;;;;;14.85;88.98;101930.25;677362;29;968;-69
2021/06/26 01:24:10;;;;;;;16.88;13.48;;;;;;;14.84;88.79;101932.03;679063;29;920;-69
2021/06/26 01:24:31;;;;;;;17.77;13.70;;;;;;;14.84;89.04;101929.38;679973;29;837;-70
2021/06/26 01:24:53;;;;;;;17.40;13.63;;;;;;;14.86;88.85;101939.94;680042;29;980;-69
2021/06/26 01:25:16;;;;;;;16.23;13.32;;;;;;;14.82;89.20;101933.03;680145;29;884;-70
2021/06/26 01:25:37;;;;;;;16.52;13.38;;;;;;;14.84;89.18;101936.50;680028;29;1352;-70
2021/06/26 01:25:57;;;;;;;17.70;13.87;;;;;;;14.87;89.10;101936.38;680173;29;908;-69
2021/06/26 01:26:19;;;;;;;17.85;13.68;;;;;;;14.88;88.91;101938.09;679842;29;916;-68
2021/06/26 01:26:40;;;;;;;17.35;13.07;;;;;;;14.89;88.79;101934.50;680136;29;1050;-69
2021/06/26 01:27:01;;;;;;;17.20;13.05;;;;;;;14.85;89.00;101935.56;680178;29;822;-69
2021/06/26 01:27:21;;;;;;;17.17;13.13;;;;;;;14.84;89.08;101936.50;679772;29;992;-69
2021/06/26 01:27:43;;;;;;;17.47;13.43;;;;;;;14.86;89.11;101934.63;679977;29;875;-68
2021/06/26 01:28:03;;;;;;;17.50;13.18;;;;;;;14.89;89.13;101937.16;679777;29;1015;-68
2021/06/26 01:28:24;;;;;;;16.73;13.10;;;;;;;14.91;88.97;101935.31;679885;29;821;-68
2021/06/26 01:28:44;;;;;;;16.42;13.13;;;;;;;14.89;88.70;101939.78;679909;29;873;-69
2021/06/26 01:29:12;;;;;;;17.67;13.47;;;;;;;14.89;88.70;101940.66;679954;29;726;-68
2021/06/26 01:29:33;;;;;;;17.50;13.70;;;;;;;14.89;88.92;101942.47;680081;29;927;-70
2021/06/26 01:29:53;;;;;;;17.80;13.32;;;;;;;14.88;89.15;101938.94;680304;29;904;-69
2021/06/26 01:30:16;;;;;;;16.77;13.25;;;;;;;14.88;88.84;101943.38;680547;29;869;-69
2021/06/26 01:30:37;;;;;;;17.20;13.52;;;;;;;14.86;88.94;101940.78;680501;29;908;-69
2021/06/26 01:30:57;;;;;;;16.63;13.37;;;;;;;14.87;88.96;101947.84;680564;29;995;-69
2021/06/26 01:31:18;;;;;;;16.83;13.50;;;;;;;14.86;89.08;101945.22;680567;29;980;-69
2021/06/26 01:31:39;;;;;;;17.30;13.63;;;;;;;14.86;88.79;101939.94;680514;29;1101;-70
2021/06/26 01:31:59;;;;;;;19.10;14.10;;;;;;;14.88;88.83;101943.38;680591;29;813;-69
2021/06/26 01:32:20;;;;;;;17.35;13.50;;;;;;;14.87;89.10;101941.69;680500;29;831;-68
2021/06/26 01:32:41;;;;;;;16.65;13.25;;;;;;;14.86;89.19;101945.22;680156;29;1000;-69
2021/06/26 01:33:02;;;;;;;16.70;13.90;;;;;;;14.87;88.87;101939.03;680448;29;998;-70
2021/06/26 01:33:22;;;;;;;17.50;14.00;;;;;;;14.84;88.99;101939.16;680651;29;1024;-69
2021/06/26 01:33:42;;;;;;;18.10;13.57;;;;;;;14.85;89.32;101943.50;680487;29;904;-70
2021/06/26 01:34:03;;;;;;;18.67;14.27;;;;;;;14.79;89.07;101949.94;680672;29;814;-69
2021/06/26 01:34:23;;;;;;;18.85;14.20;;;;;;;14.78;89.37;101947.34;680479;29;1012;-69
2021/06/26 01:34:44;;;;;;;18.47;14.00;;;;;;;14.81;89.47;101944.56;680538;29;909;-69
2021/06/26 01:35:05;;;;;;;17.10;13.18;;;;;;;14.83;89.30;101946.25;680541;29;1000;-69
2021/06/26 01:35:26;;;;;;;17.33;13.80;;;;;;;14.82;89.54;101943.66;680373;29;1248;-69
2021/06/26 01:35:48;;;;;;;18.08;13.82;;;;;;;14.81;89.23;101936.63;680601;29;841;-70
2021/06/26 01:36:08;;;;;;;18.15;14.30;;;;;;;14.81;89.48;101948.09;680511;29;1906;-69
2021/06/26 01:36:29;;;;;;;17.90;14.15;;;;;;;14.84;89.15;101947.09;680384;29;906;-69
2021/06/26 01:36:50;;;;;;;16.70;13.53;;;;;;;14.87;89.45;101944.31;680614;29;888;-69
2021/06/26 01:37:12;;;;;;;16.95;13.70;;;;;;;14.88;89.26;101938.09;680560;29;968;-70
2021/06/26 01:37:32;;;;;;;18.42;13.20;;;;;;;14.89;89.18;101939.78;680544;29;927;-70